sensor_id;sensor_type;location;lat;lon;timestamp;temperature;humidity
65472;DHT22;52068;50.710;14.492;2023-01-04T00:00:20;23.34;38.84
65472;DHT22;52068;50.710;14.492;2023-01-04T00:02:45;23.15;39.43
65472;DHT22;52068;50.710;14.492;2023-01-04T00:05:10;22.99;39.91
65472;DHT22;52068;50.710;14.492;2023-01-04T00:07:36;22.84;40.20
65472;DHT22;52068;50.710;14.492;2023-01-04T00:10:02;22.72;40.37
65472;DHT22;52068;50.710;14.492;2023-01-04T00:12:27;22.57;40.59
65472;DHT22;52068;50.710;14.492;2023-01-04T00:14:53;22.49;40.96
65472;DHT22;52068;50.710;14.492;2023-01-04T00:17:18;22.56;41.00
65472;DHT22;52068;50.710;14.492;2023-01-04T00:19:43;23.02;40.55
65472;DHT22;52068;50.710;14.492;2023-01-04T00:22:09;23.59;39.86
65472;DHT22;52068;50.710;14.492;2023-01-04T00:24:34;24.29;38.85
65472;DHT22;52068;50.710;14.492;2023-01-04T00:27:00;24.94;37.47
65472;DHT22;52068;50.710;14.492;2023-01-04T00:29:25;25.45;36.75
65472;DHT22;52068;50.710;14.492;2023-01-04T00:31:50;25.76;36.10
65472;DHT22;52068;50.710;14.492;2023-01-04T00:34:16;25.93;35.85
65472;DHT22;52068;50.710;14.492;2023-01-04T00:36:42;25.87;35.65
65472;DHT22;52068;50.710;14.492;2023-01-04T00:39:14;25.79;35.83
65472;DHT22;52068;50.710;14.492;2023-01-04T00:41:44;25.62;35.81
65472;DHT22;52068;50.710;14.492;2023-01-04T00:44:10;25.45;36.16
65472;DHT22;52068;50.710;14.492;2023-01-04T00:46:36;25.19;36.49
65472;DHT22;52068;50.710;14.492;2023-01-04T00:49:03;24.96;36.84
65472;DHT22;52068;50.710;14.492;2023-01-04T00:51:29;24.74;36.99
65472;DHT22;52068;50.710;14.492;2023-01-04T00:53:56;24.52;37.39
65472;DHT22;52068;50.710;14.492;2023-01-04T00:56:22;24.29;37.53
65472;DHT22;52068;50.710;14.492;2023-01-04T00:58:47;24.10;37.89
65472;DHT22;52068;50.710;14.492;2023-01-04T01:01:13;23.89;38.22
65472;DHT22;52068;50.710;14.492;2023-01-04T01:03:38;23.69;38.17
65472;DHT22;52068;50.710;14.492;2023-01-04T01:06:05;23.51;38.61
65472;DHT22;52068;50.710;14.492;2023-01-04T01:08:34;23.30;39.29
65472;DHT22;52068;50.710;14.492;2023-01-04T01:11:05;23.11;39.79
65472;DHT22;52068;50.710;14.492;2023-01-04T01:13:31;22.99;39.14
65472;DHT22;52068;50.710;14.492;2023-01-04T01:16:02;22.87;39.60
65472;DHT22;52068;50.710;14.492;2023-01-04T01:18:28;22.70;40.02
65472;DHT22;52068;50.710;14.492;2023-01-04T01:20:54;22.56;40.31
65472;DHT22;52068;50.710;14.492;2023-01-04T01:23:19;22.66;40.44
65472;DHT22;52068;50.710;14.492;2023-01-04T01:25:44;23.03;40.28
65472;DHT22;52068;50.710;14.492;2023-01-04T01:28:10;23.64;39.53
65472;DHT22;52068;50.710;14.492;2023-01-04T01:30:40;24.34;38.21
65472;DHT22;52068;50.710;14.492;2023-01-04T01:33:06;24.90;36.92
65472;DHT22;52068;50.710;14.492;2023-01-04T01:35:32;25.35;36.15
65472;DHT22;52068;50.710;14.492;2023-01-04T01:37:58;25.66;35.84
65472;DHT22;52068;50.710;14.492;2023-01-04T01:40:23;25.76;35.60
65472;DHT22;52068;50.710;14.492;2023-01-04T01:42:49;25.70;35.61
65472;DHT22;52068;50.710;14.492;2023-01-04T01:45:31;25.59;35.67
65472;DHT22;52068;50.710;14.492;2023-01-04T01:48:04;25.42;35.47
65472;DHT22;52068;50.710;14.492;2023-01-04T01:50:35;25.15;35.81
65472;DHT22;52068;50.710;14.492;2023-01-04T01:53:02;24.92;35.92
65472;DHT22;52068;50.710;14.492;2023-01-04T01:55:29;24.75;36.73
65472;DHT22;52068;50.710;14.492;2023-01-04T01:57:56;24.50;36.88
65472;DHT22;52068;50.710;14.492;2023-01-04T02:00:22;24.30;37.12
65472;DHT22;52068;50.710;14.492;2023-01-04T02:02:53;24.08;37.14
65472;DHT22;52068;50.710;14.492;2023-01-04T02:05:20;23.86;37.64
65472;DHT22;52068;50.710;14.492;2023-01-04T02:07:46;23.69;38.13
65472;DHT22;52068;50.710;14.492;2023-01-04T02:10:13;23.52;38.79
65472;DHT22;52068;50.710;14.492;2023-01-04T02:12:39;23.34;39.14
65472;DHT22;52068;50.710;14.492;2023-01-04T02:15:05;23.27;39.19
65472;DHT22;52068;50.710;14.492;2023-01-04T02:20:06;23.72;39.52
65472;DHT22;52068;50.710;14.492;2023-01-04T02:36:22;24.34;37.58
65472;DHT22;52068;50.710;14.492;2023-01-04T02:42:12;24.01;38.29
65472;DHT22;52068;50.710;14.492;2023-01-04T02:44:47;23.79;38.24
65472;DHT22;52068;50.710;14.492;2023-01-04T02:47:22;23.62;38.05
65472;DHT22;52068;50.710;14.492;2023-01-04T02:50:31;23.44;38.30
65472;DHT22;52068;50.710;14.492;2023-01-04T02:53:19;23.27;38.72
65472;DHT22;52068;50.710;14.492;2023-01-04T02:56:17;23.07;38.93
65472;DHT22;52068;50.710;14.492;2023-01-04T03:05:06;22.83;40.38
65472;DHT22;52068;50.710;14.492;2023-01-04T03:08:16;23.54;39.76
65472;DHT22;52068;50.710;14.492;2023-01-04T03:13:27;25.10;36.84
65472;DHT22;52068;50.710;14.492;2023-01-04T03:15:57;25.66;35.89
65472;DHT22;52068;50.710;14.492;2023-01-04T03:18:27;26.03;35.26
65472;DHT22;52068;50.710;14.492;2023-01-04T03:20:55;26.23;34.75
65472;DHT22;52068;50.710;14.492;2023-01-04T03:23:25;26.21;34.57
65472;DHT22;52068;50.710;14.492;2023-01-04T03:26:14;26.13;34.79
65472;DHT22;52068;50.710;14.492;2023-01-04T03:29:06;25.94;35.12
65472;DHT22;52068;50.710;14.492;2023-01-04T03:31:56;25.70;35.28
65472;DHT22;52068;50.710;14.492;2023-01-04T03:34:41;25.34;35.75
65472;DHT22;52068;50.710;14.492;2023-01-04T03:37:39;25.01;36.10
65472;DHT22;52068;50.710;14.492;2023-01-04T03:43:21;24.44;36.93
65472;DHT22;52068;50.710;14.492;2023-01-04T03:46:29;24.12;37.21
65472;DHT22;52068;50.710;14.492;2023-01-04T03:52:04;23.62;37.55
65472;DHT22;52068;50.710;14.492;2023-01-04T03:54:38;23.43;38.07
65472;DHT22;52068;50.710;14.492;2023-01-04T03:57:06;23.24;38.29
65472;DHT22;52068;50.710;14.492;2023-01-04T03:59:36;23.02;39.07
65472;DHT22;52068;50.710;14.492;2023-01-04T04:02:03;22.86;39.60
65472;DHT22;52068;50.710;14.492;2023-01-04T04:04:32;22.80;39.37
65472;DHT22;52068;50.710;14.492;2023-01-04T04:07:16;22.89;39.84
65472;DHT22;52068;50.710;14.492;2023-01-04T04:10:00;23.13;39.68
65472;DHT22;52068;50.710;14.492;2023-01-04T04:12:25;23.37;39.28
65472;DHT22;52068;50.710;14.492;2023-01-04T04:14:51;23.58;38.90
65472;DHT22;52068;50.710;14.492;2023-01-04T04:17:16;23.69;38.62
65472;DHT22;52068;50.710;14.492;2023-01-04T04:19:41;23.69;38.21
65472;DHT22;52068;50.710;14.492;2023-01-04T04:22:07;23.66;38.19
65472;DHT22;52068;50.710;14.492;2023-01-04T04:24:32;23.61;37.88
65472;DHT22;52068;50.710;14.492;2023-01-04T04:26:57;23.55;37.82
65472;DHT22;52068;50.710;14.492;2023-01-04T04:29:23;23.43;37.88
65472;DHT22;52068;50.710;14.492;2023-01-04T04:31:49;23.31;38.20
65472;DHT22;52068;50.710;14.492;2023-01-04T04:34:14;23.18;38.63
65472;DHT22;52068;50.710;14.492;2023-01-04T04:36:40;23.03;38.80
65472;DHT22;52068;50.710;14.492;2023-01-04T04:39:05;22.86;39.34
65472;DHT22;52068;50.710;14.492;2023-01-04T04:41:31;22.73;39.51
65472;DHT22;52068;50.710;14.492;2023-01-04T04:44:21;22.77;39.85
65472;DHT22;52068;50.710;14.492;2023-01-04T04:46:47;23.06;39.60
65472;DHT22;52068;50.710;14.492;2023-01-04T04:49:13;23.62;39.25
65472;DHT22;52068;50.710;14.492;2023-01-04T04:51:40;24.24;37.79
65472;DHT22;52068;50.710;14.492;2023-01-04T04:54:07;24.85;36.97
65472;DHT22;52068;50.710;14.492;2023-01-04T04:56:33;25.29;36.50
65472;DHT22;52068;50.710;14.492;2023-01-04T04:59:00;25.61;35.88
65472;DHT22;52068;50.710;14.492;2023-01-04T05:01:26;25.70;35.58
65472;DHT22;52068;50.710;14.492;2023-01-04T05:03:51;25.70;35.64
65472;DHT22;52068;50.710;14.492;2023-01-04T05:06:16;25.63;35.42
65472;DHT22;52068;50.710;14.492;2023-01-04T05:08:42;25.42;35.45
65472;DHT22;52068;50.710;14.492;2023-01-04T05:11:09;25.21;35.82
65472;DHT22;52068;50.710;14.492;2023-01-04T05:13:36;24.98;36.21
65472;DHT22;52068;50.710;14.492;2023-01-04T05:16:02;24.74;36.46
65472;DHT22;52068;50.710;14.492;2023-01-04T05:18:28;24.53;36.66
65472;DHT22;52068;50.710;14.492;2023-01-04T05:20:53;24.33;37.14
65472;DHT22;52068;50.710;14.492;2023-01-04T05:23:20;24.12;37.69
65472;DHT22;52068;50.710;14.492;2023-01-04T05:25:52;23.90;37.78
65472;DHT22;52068;50.710;14.492;2023-01-04T05:28:20;23.71;37.92
65472;DHT22;52068;50.710;14.492;2023-01-04T05:30:48;23.51;38.40
65472;DHT22;52068;50.710;14.492;2023-01-04T05:35:46;23.18;38.28
65472;DHT22;52068;50.710;14.492;2023-01-04T05:38:11;23.03;39.02
65472;DHT22;52068;50.710;14.492;2023-01-04T05:40:37;22.90;40.06
65472;DHT22;52068;50.710;14.492;2023-01-04T05:43:03;22.92;40.38
65472;DHT22;52068;50.710;14.492;2023-01-04T05:45:28;23.37;39.87
65472;DHT22;52068;50.710;14.492;2023-01-04T05:47:53;24.08;38.52
65472;DHT22;52068;50.710;14.492;2023-01-04T05:50:20;24.90;37.32
65472;DHT22;52068;50.710;14.492;2023-01-04T05:52:46;25.83;35.66
65472;DHT22;52068;50.710;14.492;2023-01-04T05:55:12;26.55;34.41
65472;DHT22;52068;50.710;14.492;2023-01-04T05:57:37;27.05;33.54
65472;DHT22;52068;50.710;14.492;2023-01-04T06:00:05;27.35;32.97
65472;DHT22;52068;50.710;14.492;2023-01-04T06:02:31;27.44;32.80
65472;DHT22;52068;50.710;14.492;2023-01-04T06:04:56;27.40;32.97
65472;DHT22;52068;50.710;14.492;2023-01-04T06:07:22;27.19;33.23
65472;DHT22;52068;50.710;14.492;2023-01-04T06:09:48;26.85;33.60
65472;DHT22;52068;50.710;14.492;2023-01-04T06:12:14;26.49;34.01
65472;DHT22;52068;50.710;14.492;2023-01-04T06:14:39;26.14;34.33
65472;DHT22;52068;50.710;14.492;2023-01-04T06:17:05;25.82;34.80
65472;DHT22;52068;50.710;14.492;2023-01-04T06:19:30;25.47;35.46
65472;DHT22;52068;50.710;14.492;2023-01-04T06:21:56;25.10;36.00
65472;DHT22;52068;50.710;14.492;2023-01-04T06:24:21;24.78;36.36
65472;DHT22;52068;50.710;14.492;2023-01-04T06:26:47;24.52;36.74
65472;DHT22;52068;50.710;14.492;2023-01-04T06:29:12;24.26;37.07
65472;DHT22;52068;50.710;14.492;2023-01-04T06:31:38;24.05;38.25
65472;DHT22;52068;50.710;14.492;2023-01-04T06:34:03;23.84;38.89
65472;DHT22;52068;50.710;14.492;2023-01-04T06:36:29;23.62;39.32
65472;DHT22;52068;50.710;14.492;2023-01-04T06:38:58;23.51;39.71
65472;DHT22;52068;50.710;14.492;2023-01-04T06:41:24;23.37;39.97
65472;DHT22;52068;50.710;14.492;2023-01-04T06:43:50;23.38;39.98
65472;DHT22;52068;50.710;14.492;2023-01-04T06:46:15;23.41;39.86
65472;DHT22;52068;50.710;14.492;2023-01-04T06:48:40;23.54;39.56
65472;DHT22;52068;50.710;14.492;2023-01-04T06:51:06;23.59;39.30
65472;DHT22;52068;50.710;14.492;2023-01-04T06:53:31;23.66;39.01
65472;DHT22;52068;50.710;14.492;2023-01-04T06:55:57;23.64;38.98
65472;DHT22;52068;50.710;14.492;2023-01-04T06:58:22;23.58;38.96
65472;DHT22;52068;50.710;14.492;2023-01-04T07:00:50;23.48;38.98
65472;DHT22;52068;50.710;14.492;2023-01-04T07:03:15;23.40;39.16
65472;DHT22;52068;50.710;14.492;2023-01-04T07:05:41;23.30;39.22
65472;DHT22;52068;50.710;14.492;2023-01-04T07:08:07;23.18;39.36
65472;DHT22;52068;50.710;14.492;2023-01-04T07:10:32;23.07;39.46
65472;DHT22;52068;50.710;14.492;2023-01-04T07:12:57;22.96;39.63
65472;DHT22;52068;50.710;14.492;2023-01-04T07:15:23;22.86;39.73
65472;DHT22;52068;50.710;14.492;2023-01-04T07:17:49;22.79;39.82
65472;DHT22;52068;50.710;14.492;2023-01-04T07:20:15;22.99;39.42
65472;DHT22;52068;50.710;14.492;2023-01-04T07:22:40;23.50;38.28
65472;DHT22;52068;50.710;14.492;2023-01-04T07:25:06;24.34;36.57
65472;DHT22;52068;50.710;14.492;2023-01-04T07:27:31;25.21;34.93
65472;DHT22;52068;50.710;14.492;2023-01-04T07:29:57;26.08;33.38
65472;DHT22;52068;50.710;14.492;2023-01-04T07:32:22;26.81;31.99
65472;DHT22;52068;50.710;14.492;2023-01-04T07:34:47;27.33;30.98
65472;DHT22;52068;50.710;14.492;2023-01-04T07:37:13;27.57;30.57
65472;DHT22;52068;50.710;14.492;2023-01-04T07:39:39;27.54;30.49
65472;DHT22;52068;50.710;14.492;2023-01-04T07:42:05;27.37;30.62
65472;DHT22;52068;50.710;14.492;2023-01-04T07:44:30;27.12;30.92
65472;DHT22;52068;50.710;14.492;2023-01-04T07:46:56;26.82;31.39
65472;DHT22;52068;50.710;14.492;2023-01-04T07:49:21;26.45;31.90
65472;DHT22;52068;50.710;14.492;2023-01-04T07:51:47;26.14;32.42
65472;DHT22;52068;50.710;14.492;2023-01-04T07:54:14;25.79;32.96
65472;DHT22;52068;50.710;14.492;2023-01-04T07:56:40;25.52;33.54
65472;DHT22;52068;50.710;14.492;2023-01-04T07:59:09;25.19;34.00
65472;DHT22;52068;50.710;14.492;2023-01-04T08:01:36;24.94;34.37
65472;DHT22;52068;50.710;14.492;2023-01-04T08:04:07;24.71;34.85
65472;DHT22;52068;50.710;14.492;2023-01-04T08:06:33;24.44;35.27
65472;DHT22;52068;50.710;14.492;2023-01-04T08:09:00;24.22;35.66
65472;DHT22;52068;50.710;14.492;2023-01-04T08:11:25;24.03;36.15
65472;DHT22;52068;50.710;14.492;2023-01-04T08:13:51;23.85;36.43
65472;DHT22;52068;50.710;14.492;2023-01-04T08:18:43;23.65;36.83
65472;DHT22;52068;50.710;14.492;2023-01-04T08:21:09;23.84;36.59
65472;DHT22;52068;50.710;14.492;2023-01-04T08:23:35;24.09;36.17
65472;DHT22;52068;50.710;14.492;2023-01-04T08:26:05;24.41;35.56
65472;DHT22;52068;50.710;14.492;2023-01-04T08:28:31;24.71;35.18
65472;DHT22;52068;50.710;14.492;2023-01-04T08:30:57;24.90;34.81
65472;DHT22;52068;50.710;14.492;2023-01-04T08:33:22;24.99;34.53
65472;DHT22;52068;50.710;14.492;2023-01-04T08:35:48;24.99;34.59
65472;DHT22;52068;50.710;14.492;2023-01-04T08:38:14;24.95;34.67
65472;DHT22;52068;50.710;14.492;2023-01-04T08:40:39;24.85;34.71
65472;DHT22;52068;50.710;14.492;2023-01-04T08:43:05;24.73;35.04
65472;DHT22;52068;50.710;14.492;2023-01-04T08:45:30;24.53;35.48
65472;DHT22;52068;50.710;14.492;2023-01-04T08:47:55;24.34;35.76
65472;DHT22;52068;50.710;14.492;2023-01-04T08:50:21;24.15;36.08
65472;DHT22;52068;50.710;14.492;2023-01-04T08:52:47;23.96;36.44
65472;DHT22;52068;50.710;14.492;2023-01-04T08:55:12;23.74;36.76
65472;DHT22;52068;50.710;14.492;2023-01-04T08:57:40;23.55;37.19
65472;DHT22;52068;50.710;14.492;2023-01-04T09:00:06;23.37;37.57
65472;DHT22;52068;50.710;14.492;2023-01-04T09:02:31;23.23;37.70
65472;DHT22;52068;50.710;14.492;2023-01-04T09:04:57;23.18;38.05
65472;DHT22;52068;50.710;14.492;2023-01-04T09:07:28;23.27;38.06
65472;DHT22;52068;50.710;14.492;2023-01-04T09:09:53;23.47;37.84
65472;DHT22;52068;50.710;14.492;2023-01-04T09:12:18;23.65;37.33
65472;DHT22;52068;50.710;14.492;2023-01-04T09:14:44;23.84;37.03
65472;DHT22;52068;50.710;14.492;2023-01-04T09:17:09;23.89;36.79
65472;DHT22;52068;50.710;14.492;2023-01-04T09:19:35;23.96;36.65
65472;DHT22;52068;50.710;14.492;2023-01-04T09:22:00;23.96;36.69
65472;DHT22;52068;50.710;14.492;2023-01-04T09:24:26;23.88;36.75
65472;DHT22;52068;50.710;14.492;2023-01-04T09:26:51;23.76;36.95
65472;DHT22;52068;50.710;14.492;2023-01-04T09:29:17;23.61;37.20
65472;DHT22;52068;50.710;14.492;2023-01-04T09:31:42;23.48;37.50
65472;DHT22;52068;50.710;14.492;2023-01-04T09:34:09;23.33;37.69
65472;DHT22;52068;50.710;14.492;2023-01-04T09:36:35;23.18;37.95
65472;DHT22;52068;50.710;14.492;2023-01-04T09:39:00;23.04;38.29
65472;DHT22;52068;50.710;14.492;2023-01-04T09:41:28;22.92;38.51
65472;DHT22;52068;50.710;14.492;2023-01-04T09:43:56;22.80;38.79
65472;DHT22;52068;50.710;14.492;2023-01-04T09:46:40;22.83;38.96
65472;DHT22;52068;50.710;14.492;2023-01-04T09:49:30;23.28;38.18
65472;DHT22;52068;50.710;14.492;2023-01-04T09:52:02;24.24;36.52
65472;DHT22;52068;50.710;14.492;2023-01-04T09:57:18;26.28;33.17
65472;DHT22;52068;50.710;14.492;2023-01-04T09:59:47;27.13;31.77
65472;DHT22;52068;50.710;14.492;2023-01-04T10:02:20;27.81;30.68
65472;DHT22;52068;50.710;14.492;2023-01-04T10:04:49;28.21;30.07
65472;DHT22;52068;50.710;14.492;2023-01-04T10:07:41;28.34;29.75
65472;DHT22;52068;50.710;14.492;2023-01-04T10:10:13;28.18;29.98
65472;DHT22;52068;50.710;14.492;2023-01-04T10:13:08;27.83;30.50
65472;DHT22;52068;50.710;14.492;2023-01-04T10:26:12;25.62;34.12
65472;DHT22;52068;50.710;14.492;2023-01-04T10:33:49;24.68;35.62
65472;DHT22;52068;50.710;14.492;2023-01-04T10:36:20;24.41;36.10
65472;DHT22;52068;50.710;14.492;2023-01-04T10:38:52;24.16;36.47
65472;DHT22;52068;50.710;14.492;2023-01-04T10:41:21;24.05;36.92
65472;DHT22;52068;50.710;14.492;2023-01-04T10:46:56;24.29;36.55
65472;DHT22;52068;50.710;14.492;2023-01-04T10:54:45;25.18;35.10
65472;DHT22;52068;50.710;14.492;2023-01-04T11:00:04;25.55;34.44
65472;DHT22;52068;50.710;14.492;2023-01-04T11:05:10;25.45;34.59
65472;DHT22;52068;50.710;14.492;2023-01-04T11:10:45;25.11;35.14
65472;DHT22;52068;50.710;14.492;2023-01-04T11:13:12;24.91;35.39
65472;DHT22;52068;50.710;14.492;2023-01-04T11:15:38;24.70;35.71
65472;DHT22;52068;50.710;14.492;2023-01-04T11:18:07;24.53;36.06
65472;DHT22;52068;50.710;14.492;2023-01-04T11:20:34;24.33;36.29
65472;DHT22;52068;50.710;14.492;2023-01-04T11:23:17;24.13;36.79
65472;DHT22;52068;50.710;14.492;2023-01-04T11:25:58;23.93;37.17
65472;DHT22;52068;50.710;14.492;2023-01-04T11:28:29;23.90;37.26
65472;DHT22;52068;50.710;14.492;2023-01-04T11:31:17;24.01;37.21
65472;DHT22;52068;50.710;14.492;2023-01-04T11:33:59;24.16;36.93
65472;DHT22;52068;50.710;14.492;2023-01-04T11:36:40;24.40;36.51
65472;DHT22;52068;50.710;14.492;2023-01-04T11:39:17;24.63;36.12
65472;DHT22;52068;50.710;14.492;2023-01-04T11:41:54;24.77;35.81
65472;DHT22;52068;50.710;14.492;2023-01-04T11:44:20;24.80;35.56
65472;DHT22;52068;50.710;14.492;2023-01-04T11:47:04;24.85;35.54
65472;DHT22;52068;50.710;14.492;2023-01-04T11:49:34;24.78;35.70
65472;DHT22;52068;50.710;14.492;2023-01-04T11:52:01;24.64;35.87
65472;DHT22;52068;50.710;14.492;2023-01-04T11:54:26;24.47;36.16
65472;DHT22;52068;50.710;14.492;2023-01-04T11:57:04;24.24;36.63
65472;DHT22;52068;50.710;14.492;2023-01-04T11:59:34;24.12;36.77
65472;DHT22;52068;50.710;14.492;2023-01-04T12:04:41;23.78;37.46
65472;DHT22;52068;50.710;14.492;2023-01-04T12:09:51;23.45;38.06
65472;DHT22;52068;50.710;14.492;2023-01-04T12:12:17;23.30;38.14
65472;DHT22;52068;50.710;14.492;2023-01-04T12:14:46;23.21;38.47
65472;DHT22;52068;50.710;14.492;2023-01-04T12:17:21;23.33;38.06
65472;DHT22;52068;50.710;14.492;2023-01-04T12:19:49;23.69;37.62
65472;DHT22;52068;50.710;14.492;2023-01-04T12:24:46;24.90;35.81
65472;DHT22;52068;50.710;14.492;2023-01-04T12:27:15;25.67;34.53
65472;DHT22;52068;50.710;14.492;2023-01-04T12:29:53;26.35;33.34
65472;DHT22;52068;50.710;14.492;2023-01-04T12:34:45;27.16;31.87
65472;DHT22;52068;50.710;14.492;2023-01-04T12:45:41;26.69;32.40
65472;DHT22;52068;50.710;14.492;2023-01-04T12:51:23;25.82;33.82
65472;DHT22;52068;50.710;14.492;2023-01-04T12:56:14;25.11;35.03
65472;DHT22;52068;50.710;14.492;2023-01-04T12:58:40;24.81;35.43
65472;DHT22;52068;50.710;14.492;2023-01-04T13:01:08;24.56;35.62
65472;DHT22;52068;50.710;14.492;2023-01-04T13:03:34;24.30;35.72
65472;DHT22;52068;50.710;14.492;2023-01-04T13:06:04;24.12;36.10
65472;DHT22;52068;50.710;14.492;2023-01-04T13:08:38;24.03;36.27
65472;DHT22;52068;50.710;14.492;2023-01-04T13:11:06;24.10;36.19
65472;DHT22;52068;50.710;14.492;2023-01-04T13:14:05;24.26;36.05
65472;DHT22;52068;50.710;14.492;2023-01-04T13:16:45;24.56;35.84
65472;DHT22;52068;50.710;14.492;2023-01-04T13:19:20;24.70;35.33
65472;DHT22;52068;50.710;14.492;2023-01-04T13:21:47;24.75;35.06
65472;DHT22;52068;50.710;14.492;2023-01-04T13:24:21;24.81;35.24
65472;DHT22;52068;50.710;14.492;2023-01-04T13:26:48;24.75;34.89
65472;DHT22;52068;50.710;14.492;2023-01-04T13:32:03;24.50;35.17
65472;DHT22;52068;50.710;14.492;2023-01-04T13:39:41;23.99;35.85
65472;DHT22;52068;50.710;14.492;2023-01-04T13:42:31;23.79;36.25
65472;DHT22;52068;50.710;14.492;2023-01-04T13:47:41;23.65;36.78
65472;DHT22;52068;50.710;14.492;2023-01-04T13:50:25;24.03;36.14
65472;DHT22;52068;50.710;14.492;2023-01-04T13:52:51;24.61;35.46
65472;DHT22;52068;50.710;14.492;2023-01-04T13:55:25;25.49;34.32
65472;DHT22;52068;50.710;14.492;2023-01-04T13:58:15;26.59;32.48
65472;DHT22;52068;50.710;14.492;2023-01-04T14:00:47;27.47;31.18
65472;DHT22;52068;50.710;14.492;2023-01-04T14:05:47;28.73;29.19
65472;DHT22;52068;50.710;14.492;2023-01-04T14:08:18;28.87;28.94
65472;DHT22;52068;50.710;14.492;2023-01-04T14:10:45;28.73;29.10
65472;DHT22;52068;50.710;14.492;2023-01-04T14:13:16;28.46;29.48
65472;DHT22;52068;50.710;14.492;2023-01-04T14:15:41;28.12;29.93
65472;DHT22;52068;50.710;14.492;2023-01-04T14:18:27;27.64;30.64
65472;DHT22;52068;50.710;14.492;2023-01-04T14:20:53;27.19;31.22
65472;DHT22;52068;50.710;14.492;2023-01-04T14:23:33;26.82;31.70
65472;DHT22;52068;50.710;14.492;2023-01-04T14:25:59;26.48;32.33
65472;DHT22;52068;50.710;14.492;2023-01-04T14:28:29;26.18;32.59
65472;DHT22;52068;50.710;14.492;2023-01-04T14:38:38;24.96;34.74
65472;DHT22;52068;50.710;14.492;2023-01-04T14:41:30;24.68;35.12
65472;DHT22;52068;50.710;14.492;2023-01-04T14:46:27;24.50;35.80
65472;DHT22;52068;50.710;14.492;2023-01-04T14:48:53;24.73;35.50
65472;DHT22;52068;50.710;14.492;2023-01-04T14:51:21;25.18;34.76
65472;DHT22;52068;50.710;14.492;2023-01-04T14:53:48;25.77;33.80
65472;DHT22;52068;50.710;14.492;2023-01-04T14:56:15;26.34;33.17
65472;DHT22;52068;50.710;14.492;2023-01-04T14:58:41;26.85;32.03
65472;DHT22;52068;50.710;14.492;2023-01-04T15:01:07;27.30;31.28
65472;DHT22;52068;50.710;14.492;2023-01-04T15:03:32;27.63;30.96
65472;DHT22;52068;50.710;14.492;2023-01-04T15:05:58;27.77;30.51
65472;DHT22;52068;50.710;14.492;2023-01-04T15:08:23;27.80;30.44
65472;DHT22;52068;50.710;14.492;2023-01-04T15:10:49;27.70;30.79
65472;DHT22;52068;50.710;14.492;2023-01-04T15:13:14;27.44;31.04
65472;DHT22;52068;50.710;14.492;2023-01-04T15:15:40;27.09;31.45
65472;DHT22;52068;50.710;14.492;2023-01-04T15:18:09;26.71;32.21
65472;DHT22;52068;50.710;14.492;2023-01-04T15:20:36;26.43;32.86
65472;DHT22;52068;50.710;14.492;2023-01-04T15:23:02;26.10;33.28
65472;DHT22;52068;50.710;14.492;2023-01-04T15:25:27;25.77;33.63
65472;DHT22;52068;50.710;14.492;2023-01-04T15:27:54;25.42;34.09
65472;DHT22;52068;50.710;14.492;2023-01-04T15:30:19;25.10;34.58
65472;DHT22;52068;50.710;14.492;2023-01-04T15:32:45;24.85;35.12
65472;DHT22;52068;50.710;14.492;2023-01-04T15:35:10;24.64;35.55
65472;DHT22;52068;50.710;14.492;2023-01-04T15:37:40;24.46;35.83
65472;DHT22;52068;50.710;14.492;2023-01-04T15:40:06;24.36;36.05
65472;DHT22;52068;50.710;14.492;2023-01-04T15:42:31;24.32;36.33
65472;DHT22;52068;50.710;14.492;2023-01-04T15:45:15;24.34;37.13
65472;DHT22;52068;50.710;14.492;2023-01-04T15:47:40;24.34;37.66
65472;DHT22;52068;50.710;14.492;2023-01-04T15:50:06;24.30;37.84
65472;DHT22;52068;50.710;14.492;2023-01-04T15:52:31;24.29;38.06
65472;DHT22;52068;50.710;14.492;2023-01-04T15:54:57;24.24;38.30
65472;DHT22;52068;50.710;14.492;2023-01-04T15:57:22;24.19;38.31
65472;DHT22;52068;50.710;14.492;2023-01-04T15:59:47;24.09;38.40
65472;DHT22;52068;50.710;14.492;2023-01-04T16:02:13;23.99;38.31
65472;DHT22;52068;50.710;14.492;2023-01-04T16:04:38;23.86;38.55
65472;DHT22;52068;50.710;14.492;2023-01-04T16:07:04;23.74;38.72
65472;DHT22;52068;50.710;14.492;2023-01-04T16:09:29;23.57;38.94
65472;DHT22;52068;50.710;14.492;2023-01-04T16:11:54;23.47;39.19
65472;DHT22;52068;50.710;14.492;2023-01-04T16:14:38;23.34;39.47
65472;DHT22;52068;50.710;14.492;2023-01-04T16:17:04;23.23;39.85
65472;DHT22;52068;50.710;14.492;2023-01-04T16:19:29;23.28;40.04
65472;DHT22;52068;50.710;14.492;2023-01-04T16:21:57;23.57;39.61
65472;DHT22;52068;50.710;14.492;2023-01-04T16:24:22;24.01;38.72
65472;DHT22;52068;50.710;14.492;2023-01-04T16:26:47;24.59;38.05
65472;DHT22;52068;50.710;14.492;2023-01-04T16:29:13;25.28;36.84
65472;DHT22;52068;50.710;14.492;2023-01-04T16:31:38;26.07;35.78
65472;DHT22;52068;50.710;14.492;2023-01-04T16:34:05;26.76;34.58
65472;DHT22;52068;50.710;14.492;2023-01-04T16:36:30;27.39;33.59
65472;DHT22;52068;50.710;14.492;2023-01-04T16:38:56;27.85;32.81
65472;DHT22;52068;50.710;14.492;2023-01-04T16:41:21;28.08;32.42
65472;DHT22;52068;50.710;14.492;2023-01-04T16:43:52;28.07;32.42
65472;DHT22;52068;50.710;14.492;2023-01-04T16:46:36;27.80;32.78
65472;DHT22;52068;50.710;14.492;2023-01-04T16:49:15;27.36;33.32
65472;DHT22;52068;50.710;14.492;2023-01-04T16:51:42;26.94;34.03
65472;DHT22;52068;50.710;14.492;2023-01-04T16:54:10;26.58;34.39
65472;DHT22;52068;50.710;14.492;2023-01-04T16:56:37;26.23;35.19
65472;DHT22;52068;50.710;14.492;2023-01-04T16:59:03;25.93;35.42
65472;DHT22;52068;50.710;14.492;2023-01-04T17:01:31;25.69;36.06
65472;DHT22;52068;50.710;14.492;2023-01-04T17:03:58;25.41;36.38
65472;DHT22;52068;50.710;14.492;2023-01-04T17:06:27;25.10;37.04
65472;DHT22;52068;50.710;14.492;2023-01-04T17:08:53;24.80;37.33
65472;DHT22;52068;50.710;14.492;2023-01-04T17:11:24;24.53;37.85
65472;DHT22;52068;50.710;14.492;2023-01-04T17:13:50;24.30;38.36
65472;DHT22;52068;50.710;14.492;2023-01-04T17:16:15;24.13;38.89
65472;DHT22;52068;50.710;14.492;2023-01-04T17:18:42;23.98;38.81
65472;DHT22;52068;50.710;14.492;2023-01-04T17:21:10;24.06;38.98
65472;DHT22;52068;50.710;14.492;2023-01-04T17:23:40;24.37;38.38
65472;DHT22;52068;50.710;14.492;2023-01-04T17:26:08;24.77;37.78
65472;DHT22;52068;50.710;14.492;2023-01-04T17:28:34;25.24;36.93